AirNav   Free Bose QuietComfort 20
 
 612 users online  

08FL J H Hendrie Farms Airport
Lake Placid, Florida, USA

GOING TO LAKE PLACID?


FAA INFORMATION EFFECTIVE 05 DECEMBER 2019

Location

FAA Identifier: 08FL
Lat/Long: 27-05-04.1890N 081-19-43.2600W
27-05.069817N 081-19.721000W
27.0844969,-81.3286833
(estimated)
Elevation: 103 ft. / 31 m (estimated)
Variation: 03W (1990)
From city: 17 miles S of LAKE PLACID, FL
Time zone: UTC -5 (UTC -4 during Daylight Saving Time)
Zip code: 33960

Airport Operations

Airport use: Private use. Permission required prior to landing
Activation date: 04/1993
Control tower: no
ARTCC: MIAMI CENTER
FSS: SAINT PETERSBURG FLIGHT SERVICE STATION
Attendance: UNATNDD
Segmented circle: no

Nearby radio navigation aids

VOR radial/distance  VOR name  Freq  Var
LBVr011/15.7LA BELLE VORTAC110.4001E
PGDr080/(36.8)PUNTA GORDA VOR110.2006W
PHKr298/38.6PAHOKEE VOR/DME115.4000E

Airport Services

Runway Information

Runway 3/21

Dimensions: 2500 x 100 ft. / 762 x 30 m
Surface: turf
RUNWAY 3  RUNWAY 21
Traffic pattern: leftleft

Airport Ownership and Management from official FAA records

Ownership: Privately-owned
Owner: JAMES H. HENDRIE
PO BOX 358
VENUS, FL 33960

Airport Operational Statistics

Aircraft based on the field: 1
Single engine airplanes: 1
    

Additional Remarks

FOR CD CTC MIAMI ARTCC AT 305-716-1731.

Instrument Procedures

There are no published instrument procedures at 08FL.

Some nearby airports with instrument procedures:

X14 - La Belle Municipal Airport (21 nm S)
KSEF - Sebring Regional Airport (22 nm N)
2IS - Airglades Airport (26 nm SE)
KOBE - Okeechobee County Airport (28 nm NE)
X06 - Arcadia Municipal Airport (28 nm W)
 
Loc | Ops | Rwys | IFR | FBO | Links
Com | Nav | Svcs | Stats | Notes


 
Area around 08FL (J H Hendrie Farms Airport)
 
Road maps at: MapQuest Bing Google
 
Aerial photo
No photo
 
Sectional chart

 
Airport distance calculator
Flying to J H Hendrie Farms Airport? Find the distance to fly.

From to 08FL

Sunrise and sunset
Times for 10-Dec-2019
 Local
(UTC-5)
 Zulu
(UTC)
Morning civil twilight06:4011:40
Sunrise07:0512:05
Sunset17:3122:31
Evening civil twilight17:5722:57

Current date and time
Zulu (UTC)  10-Dec-2019 06:15:08
Local (UTC-5)  10-Dec-2019 01:15:08
 
METAR
KSEF 
22nm N 
100555Z AUTO 00000KT 5SM BR CLR 18/17 A3012 RMK AO2 T01780173 10223 20177
KOBE 
28nm NE 
100555Z AUTO 00000KT 10SM CLR 17/17 A3011 RMK AO2
KPGD 
37nm W 
100553Z AUTO 00000KT 9SM CLR 16/16 A3011 RMK AO2 SLP196 T01610161 10217 20156 58005
KIMM 
39nm S 
100555Z AUTO 00000KT 1/4SM FG VV002 17/16 A3010 RMK AO2
KRSW 
41nm SW 
100553Z AUTO 00000KT 10SM CLR 20/19 A3009 RMK AO2 SLP188 60000 T02000189 10239 20200 58008
KFMY 
42nm SW 
100553Z AUTO 13004KT 10SM CLR 21/18 A3009 RMK AO2 SLP190 T02110183 10244 20211 58007
TAF
KPGD 
37nm W 
100520Z 1006/1106 VRB03KT P6SM FEW030 FM100900 VRB03KT 5SM BR FEW010 BKN030 FM101500 16010KT P6SM SCT040 SCT250 FM101900 21011KT P6SM SCT040 SCT250 FM110200 18004KT P6SM SCT020
KRSW 
41nm SW 
100520Z 1006/1106 VRB03KT P6SM FEW030 FM101000 VRB03KT 6SM BR SCT030 FM101500 15012KT P6SM SCT040 BKN250 FM102000 19009KT P6SM SCT040 BKN250 FM110200 15004KT P6SM SCT020
KFMY 
42nm SW 
100520Z 1006/1106 VRB03KT P6SM FEW030 FM101000 VRB03KT 6SM BR SCT030 FM101500 15008KT P6SM SCT040 BKN250 FM102000 19009KT P6SM SCT040 BKN250 FM110200 16004KT P6SM SCT020
NOTAMs
Click for the latest NOTAMs
NOTAMs are issued by the DoD/FAA and will open in a separate window not controlled by AirNav.

 

 
 

Would you like to see your business listed on this page?

 If your business provides an interesting product or service to pilots, flight crews, aircraft, or users of the J H Hendrie Farms Airport, you should consider listing it here.  To start the listing process, click on the button below
 
Add a business
 

Other Pages about J H Hendrie Farms Airport

Update a link
 
Copyright © AirNav, LLC. All rights reserved. Privacy Policy  Contact